Time;durP1;ratioP1;P1;durP2;ratioP2;P2;SDS_P1;SDS_P2;PMS_P1;PMS_P2;Temp;Humidity;BMP_temperature;BMP_pressure;BME280_temperature;BME280_humidity;BME280_pressure;Samples;Min_cycle;Max_cycle;Signal;HPM_P1;HPM_P2
2023/02/21 02:15:30;;;;;;;12.10;9.03;;;9.20;1.00;;;;;;6126336;23;20398;-79
2023/02/21 02:18:35;;;;;;;13.13;9.63;;;9.20;1.00;;;;;;6119204;23;20408;-78
2023/02/21 02:21:41;;;;;;;12.57;8.77;;;9.20;1.00;;;;;;6110504;23;20972;-79
2023/02/21 02:24:49;;;;;;;11.97;8.97;;;9.20;1.00;;;;;;6096230;23;20374;-79
2023/02/21 02:27:56;;;;;;;11.77;8.63;;;9.20;1.00;;;;;;6142796;23;20391;-78
2023/02/21 02:31:09;;;;;;;14.93;10.00;;;9.30;1.00;;;;;;6128287;23;20436;-78
2023/02/21 02:34:10;;;;;;;13.20;10.03;;;9.20;1.00;;;;;;6136828;23;20923;-78
2023/02/21 02:36:42;;;;;;;15.40;10.00;;;9.30;1.00;;;;;;6119296;23;20481;-80
2023/02/21 02:39:22;;;;;;;14.57;10.23;;;9.30;1.00;;;;;;6132426;23;20428;-78
2023/02/21 02:41:58;;;;;;;13.70;10.30;;;9.30;1.00;;;;;;6105072;23;20681;-76
2023/02/21 02:44:32;;;;;;;13.23;10.03;;;9.30;1.00;;;;;;6130860;23;20897;-77
2023/02/21 02:47:03;;;;;;;10.80;8.60;;;9.30;1.00;;;;;;6131265;23;20510;-77
2023/02/21 02:49:35;;;;;;;15.40;10.87;;;9.30;1.00;;;;;;6130283;23;20430;-78
2023/02/21 02:52:06;;;;;;;11.73;9.17;;;9.40;1.00;;;;;;6132338;23;20470;-78
2023/02/21 02:54:33;;;;;;;13.03;9.47;;;9.40;1.00;;;;;;6132808;23;20439;-79
2023/02/21 02:57:03;;;;;;;14.67;10.87;;;9.40;1.00;;;;;;6131758;23;20909;-79
2023/02/21 02:59:32;;;;;;;12.73;8.97;;;9.40;1.00;;;;;;6129463;23;20424;-80
2023/02/21 03:02:25;;;;;;;13.37;10.67;;;9.40;1.00;;;;;;6119304;23;20433;-78
2023/02/21 03:05:16;;;;;;;13.47;10.93;;;9.40;1.00;;;;;;6129867;23;20439;-78
2023/02/21 03:07:55;;;;;;;12.60;9.67;;;9.40;1.00;;;;;;6156199;23;20439;-78
2023/02/21 03:10:29;;;;;;;13.13;9.87;;;9.50;1.00;;;;;;6159675;23;20453;-79
2023/02/21 03:13:05;;;;;;;14.17;9.60;;;9.40;1.00;;;;;;6160668;23;20560;-79
2023/02/21 03:15:39;;;;;;;13.77;11.10;;;9.50;1.00;;;;;;6160065;23;20442;-79
2023/02/21 03:18:12;;;;;;;13.25;10.10;;;9.50;1.00;;;;;;6160862;23;20390;-78
2023/02/21 03:20:44;;;;;;;15.70;10.77;;;9.50;1.00;;;;;;6160371;23;20301;-78
2023/02/21 03:23:17;;;;;;;15.47;11.10;;;9.60;1.00;;;;;;6163825;23;20926;-77
2023/02/21 03:25:46;;;;;;;12.20;10.17;;;9.60;1.00;;;;;;6146456;23;20513;-77
2023/02/21 03:28:14;;;;;;;13.20;10.30;;;9.60;1.00;;;;;;6170087;23;20415;-78
2023/02/21 03:30:42;;;;;;;13.50;9.97;;;9.60;1.00;;;;;;6161012;23;20961;-78
2023/02/21 03:33:09;;;;;;;14.20;10.90;;;9.70;1.00;;;;;;6157336;23;20423;-80
2023/02/21 03:35:36;;;;;;;11.73;9.30;;;9.70;1.00;;;;;;6161179;23;20494;-77
2023/02/21 03:38:04;;;;;;;12.90;9.40;;;9.70;1.00;;;;;;6164485;23;20462;-78
2023/02/21 03:40:34;;;;;;;11.77;9.43;;;9.70;1.00;;;;;;6146137;23;20618;-78
2023/02/21 03:43:06;;;;;;;11.97;9.10;;;9.70;1.00;;;;;;6174409;23;20387;-78
2023/02/21 03:45:34;;;;;;;15.53;9.80;;;9.80;1.00;;;;;;6161723;23;20410;-80
2023/02/21 03:48:01;;;;;;;12.03;8.70;;;9.80;1.00;;;;;;6163897;23;20443;-80
2023/02/21 03:50:28;;;;;;;13.87;9.60;;;9.80;1.00;;;;;;6163628;23;20517;-80
2023/02/21 03:52:55;;;;;;;11.50;9.30;;;9.90;1.00;;;;;;6162405;23;20427;-78
2023/02/21 03:55:22;;;;;;;12.43;9.00;;;9.90;1.00;;;;;;6165379;23;21258;-78
2023/02/21 03:57:51;;;;;;;10.57;8.30;;;9.90;1.00;;;;;;6164004;23;20426;-80
2023/02/21 04:00:20;;;;;;;10.50;8.30;;;9.90;1.00;;;;;;6163438;23;20423;-80
2023/02/21 04:02:47;;;;;;;11.87;9.20;;;9.90;1.00;;;;;;6162566;23;20434;-80
2023/02/21 04:05:14;;;;;;;12.17;8.67;;;9.90;1.00;;;;;;6166899;23;20434;-79
2023/02/21 04:07:41;;;;;;;12.10;8.63;;;9.90;1.00;;;;;;6165221;23;20501;-79
2023/02/21 04:10:09;;;;;;;10.13;7.97;;;10.00;1.00;;;;;;6175713;23;21182;-79
2023/02/21 04:12:36;;;;;;;12.43;9.80;;;10.00;1.00;;;;;;6162910;23;20560;-79
2023/02/21 04:15:04;;;;;;;13.30;9.10;;;10.10;1.00;;;;;;6164700;23;20470;-79
2023/02/21 04:17:31;;;;;;;10.77;8.53;;;10.10;1.00;;;;;;6160144;23;20415;-78
2023/02/21 04:20:00;;;;;;;11.27;8.37;;;10.10;1.00;;;;;;6166378;23;20419;-79
2023/02/21 04:22:28;;;;;;;10.00;7.93;;;10.20;1.00;;;;;;6164102;23;20446;-78
2023/02/21 04:24:56;;;;;;;11.27;8.80;;;10.20;1.00;;;;;;6165113;23;20439;-78
2023/02/21 04:27:23;;;;;;;13.30;8.53;;;10.20;1.00;;;;;;6165019;23;21022;-78
2023/02/21 04:29:50;;;;;;;10.97;8.50;;;10.20;1.00;;;;;;6137657;23;20902;-77
2023/02/21 04:32:18;;;;;;;12.17;9.20;;;10.30;1.00;;;;;;6165069;23;20482;-79
2023/02/21 04:34:45;;;;;;;11.53;8.30;;;10.20;1.00;;;;;;6150402;23;20458;-78
2023/02/21 04:37:12;;;;;;;11.30;8.33;;;10.30;1.00;;;;;;6164553;23;20494;-78
2023/02/21 04:39:39;;;;;;;11.97;8.00;;;10.30;1.00;;;;;;6163683;23;20898;-78
2023/02/21 04:42:08;;;;;;;11.33;9.23;;;10.40;1.00;;;;;;6165229;23;20416;-79
2023/02/21 04:44:35;;;;;;;10.90;8.40;;;10.30;1.00;;;;;;6163607;23;20445;-79
2023/02/21 04:47:02;;;;;;;9.80;8.23;;;10.30;1.00;;;;;;6162767;23;20426;-79
2023/02/21 04:49:30;;;;;;;13.27;9.53;;;10.30;1.00;;;;;;6153999;23;20422;-78
2023/02/21 04:51:57;;;;;;;10.43;9.10;;;10.30;1.00;;;;;;6161927;23;20419;-77
2023/02/21 04:54:24;;;;;;;12.63;8.93;;;10.30;1.00;;;;;;6161686;23;20410;-78
2023/02/21 04:56:51;;;;;;;18.70;14.20;;;10.30;1.00;;;;;;6157862;23;20482;-77
2023/02/21 04:59:18;;;;;;;9.90;8.10;;;10.30;1.00;;;;;;6164654;23;20455;-78
2023/02/21 05:01:47;;;;;;;11.47;9.30;;;10.30;1.00;;;;;;6134883;23;20435;-78
2023/02/21 05:04:15;;;;;;;12.20;9.80;;;10.30;1.00;;;;;;6161066;23;20494;-79
2023/02/21 05:06:43;;;;;;;13.97;10.20;;;10.20;1.00;;;;;;6160564;23;20419;-78
2023/02/21 05:09:11;;;;;;;16.23;10.70;;;10.20;1.00;;;;;;6163850;23;20484;-79
2023/02/21 05:11:40;;;;;;;14.07;10.10;;;10.10;1.00;;;;;;6156574;23;20427;-78
2023/02/21 05:14:09;;;;;;;13.83;9.90;;;10.00;1.00;;;;;;6163848;23;20446;-77
2023/02/21 05:16:36;;;;;;;12.33;9.73;;;10.00;1.00;;;;;;6161294;23;20433;-80
2023/02/21 05:19:04;;;;;;;14.27;10.50;;;9.90;1.00;;;;;;6163343;23;20519;-76
2023/02/21 05:21:37;;;;;;;13.80;9.97;;;9.90;1.00;;;;;;6157930;23;20444;-78
2023/02/21 05:24:10;;;;;;;12.47;9.83;;;9.90;1.00;;;;;;6174764;23;20510;-78
2023/02/21 05:26:40;;;;;;;15.43;10.53;;;9.80;1.00;;;;;;6149068;23;21201;-79
2023/02/21 05:29:12;;;;;;;14.33;10.90;;;9.80;1.00;;;;;;6143470;23;20910;-78
2023/02/21 05:31:41;;;;;;;14.90;10.73;;;9.80;1.00;;;;;;6148297;23;20438;-78
2023/02/21 05:34:11;;;;;;;15.40;10.23;;;9.80;1.00;;;;;;6155522;23;20521;-80
2023/02/21 05:36:50;;;;;;;15.00;11.67;;;9.80;1.00;;;;;;6161739;23;20416;-78
2023/02/21 05:39:26;;;;;;;12.90;10.23;;;9.80;1.00;;;;;;6154246;23;20430;-79
2023/02/21 05:42:01;;;;;;;14.13;10.60;;;9.80;1.00;;;;;;6110550;23;20424;-82
2023/02/21 05:44:33;;;;;;;14.07;11.03;;;9.80;1.00;;;;;;6162814;23;20427;-80
2023/02/21 05:47:02;;;;;;;14.47;10.77;;;9.80;1.00;;;;;;6164022;23;20395;-79
2023/02/21 05:49:30;;;;;;;12.60;10.47;;;9.80;1.00;;;;;;6163303;23;20395;-79
2023/02/21 05:52:01;;;;;;;13.30;11.07;;;9.80;1.00;;;;;;6175945;23;20490;-79
2023/02/21 05:54:33;;;;;;;15.33;12.13;;;9.70;1.00;;;;;;6172397;23;20390;-80
2023/02/21 05:57:01;;;;;;;15.57;11.03;;;9.70;1.00;;;;;;6172654;23;20447;-83
2023/02/21 05:59:32;;;;;;;12.80;9.93;;;9.70;1.00;;;;;;6170149;23;20390;-83
2023/02/21 06:02:04;;;;;;;13.13;9.93;;;9.60;1.00;;;;;;6181425;23;20383;-80
2023/02/21 06:04:33;;;;;;;16.80;11.30;;;9.60;1.00;;;;;;6180259;23;20406;-82
2023/02/21 06:07:00;;;;;;;13.37;9.90;;;9.60;1.00;;;;;;6171914;23;20411;-79
2023/02/21 06:09:31;;;;;;;14.40;11.50;;;9.60;1.00;;;;;;6155877;23;20468;-80
2023/02/21 06:12:02;;;;;;;13.07;9.50;;;9.60;1.00;;;;;;6175459;23;20423;-80
2023/02/21 06:14:32;;;;;;;12.43;9.73;;;9.60;1.00;;;;;;6162244;23;20426;-78
2023/02/21 06:17:01;;;;;;;14.97;11.43;;;9.60;1.00;;;;;;6171088;23;20415;-79
2023/02/21 06:19:28;;;;;;;12.40;10.13;;;9.60;1.00;;;;;;6158521;23;20423;-77
2023/02/21 06:21:55;;;;;;;12.77;10.07;;;9.70;1.00;;;;;;6158024;23;20437;-77
2023/02/21 06:24:22;;;;;;;13.70;11.13;;;9.60;1.00;;;;;;6159089;23;20439;-76
2023/02/21 06:26:51;;;;;;;13.70;10.60;;;9.60;1.00;;;;;;6158830;23;20941;-77
2023/02/21 06:29:24;;;;;;;16.07;10.50;;;9.60;1.00;;;;;;6157947;23;20474;-80
2023/02/21 06:32:10;;;;;;;12.43;9.17;;;9.70;1.00;;;;;;6146433;23;20439;-78
2023/02/21 06:34:40;;;;;;;15.20;9.83;;;9.60;1.00;;;;;;6146699;23;20897;-76
2023/02/21 06:37:07;;;;;;;10.80;8.83;;;9.70;1.00;;;;;;6158404;23;20589;-76
2023/02/21 06:39:35;;;;;;;13.90;8.83;;;9.60;1.00;;;;;;6151941;23;21345;-76
2023/02/21 06:42:08;;;;;;;11.07;8.40;;;9.60;1.00;;;;;;6161557;23;20423;-76
2023/02/21 06:44:43;;;;;;;10.70;8.00;;;9.60;1.00;;;;;;6158963;23;20435;-75
2023/02/21 06:47:13;;;;;;;9.30;6.67;;;9.60;1.00;;;;;;6144327;23;20608;-76
2023/02/21 06:49:41;;;;;;;10.97;7.07;;;9.60;1.00;;;;;;6143517;23;20399;-78
2023/02/21 06:52:20;;;;;;;9.93;6.50;;;9.60;1.00;;;;;;6171595;23;20468;-76
2023/02/21 06:54:50;;;;;;;9.30;7.13;;;9.60;1.00;;;;;;6161577;23;20461;-79
2023/02/21 06:57:17;;;;;;;14.20;9.60;;;9.60;1.00;;;;;;6171309;23;20422;-78
2023/02/21 06:59:50;;;;;;;10.70;6.80;;;9.60;1.00;;;;;;6166582;23;20462;-78
2023/02/21 07:02:19;;;;;;;11.43;8.23;;;9.60;1.00;;;;;;6168348;23;21207;-78
2023/02/21 07:04:47;;;;;;;9.30;7.50;;;9.70;1.00;;;;;;6171832;23;21065;-85
2023/02/21 07:07:14;;;;;;;10.80;7.67;;;9.70;1.00;;;;;;6175983;23;21225;-83
2023/02/21 07:09:41;;;;;;;11.20;7.50;;;9.70;1.00;;;;;;6172765;23;20422;-83
2023/02/21 07:12:13;;;;;;;11.53;8.30;;;9.70;1.00;;;;;;6157285;23;20394;-83
2023/02/21 07:14:41;;;;;;;10.13;6.23;;;9.70;1.00;;;;;;6153680;23;20387;-77
2023/02/21 07:17:12;;;;;;;9.03;7.70;;;9.70;1.00;;;;;;6167443;23;20423;-80
2023/02/21 07:19:42;;;;;;;10.50;7.73;;;9.70;1.00;;;;;;6168453;23;20426;-80
2023/02/21 07:22:11;;;;;;;10.37;7.67;;;9.70;1.00;;;;;;6169450;23;20436;-78
2023/02/21 07:24:40;;;;;;;10.10;7.43;;;9.70;1.00;;;;;;6160369;23;20406;-79
2023/02/21 07:27:13;;;;;;;9.83;7.33;;;9.80;1.00;;;;;;6167125;23;20433;-76
2023/02/21 07:29:50;;;;;;;10.60;8.23;;;9.80;1.00;;;;;;6154701;23;20395;-81
2023/02/21 07:32:29;;;;;;;8.90;6.83;;;9.70;1.00;;;;;;6164511;23;20492;-76
2023/02/21 07:35:04;;;;;;;9.80;6.80;;;9.70;1.00;;;;;;6177416;23;20390;-80
2023/02/21 07:38:03;;;;;;;6.83;5.43;;;9.70;1.00;;;;;;6161434;23;20394;-80
2023/02/21 07:40:31;;;;;;;8.77;5.73;;;9.70;1.00;;;;;;6180050;23;20454;-80
2023/02/21 07:43:02;;;;;;;7.53;4.77;;;9.70;1.00;;;;;;6176007;23;20398;-80
2023/02/21 07:45:31;;;;;;;6.80;4.53;;;9.60;1.00;;;;;;6163802;23;20429;-80
2023/02/21 07:48:02;;;;;;;7.87;4.23;;;9.60;1.00;;;;;;6170783;23;20391;-81
2023/02/21 07:50:34;;;;;;;7.70;5.00;;;9.60;1.00;;;;;;6166716;23;20439;-80
2023/02/21 07:53:01;;;;;;;7.20;4.47;;;9.70;1.00;;;;;;6178526;23;20431;-82
2023/02/21 07:55:37;;;;;;;8.07;4.67;;;9.70;1.00;;;;;;6179041;23;20411;-82
2023/02/21 07:58:10;;;;;;;6.00;3.90;;;9.80;1.00;;;;;;6164512;23;20470;-80
2023/02/21 08:00:43;;;;;;;5.10;3.40;;;9.70;1.00;;;;;;6150815;23;20431;-79
2023/02/21 08:03:14;;;;;;;4.63;2.70;;;9.70;1.00;;;;;;6178066;23;20395;-81
2023/02/21 08:05:41;;;;;;;3.80;2.30;;;9.70;1.00;;;;;;6168925;23;20394;-80
2023/02/21 08:08:11;;;;;;;4.20;2.70;;;9.70;1.00;;;;;;6176366;23;20390;-79
2023/02/21 08:10:41;;;;;;;3.80;2.10;;;9.60;1.00;;;;;;6148751;23;20398;-81
2023/02/21 08:13:17;;;;;;;4.10;2.83;;;9.60;1.00;;;;;;6161982;23;20418;-77
2023/02/21 08:15:51;;;;;;;6.77;4.83;;;9.50;1.00;;;;;;6161080;23;20853;-81
2023/02/21 08:18:23;;;;;;;4.10;2.47;;;9.60;1.00;;;;;;6172359;23;20415;-77
2023/02/21 08:21:00;;;;;;;6.53;3.00;;;9.60;1.00;;;;;;6147315;23;20447;-80
2023/02/21 08:23:31;;;;;;;3.83;2.60;;;9.70;1.00;;;;;;6170366;23;20407;-80
2023/02/21 08:26:02;;;;;;;3.63;2.10;;;9.70;1.00;;;;;;6160554;23;20426;-77
2023/02/21 08:28:31;;;;;;;4.93;2.70;;;9.80;1.00;;;;;;6163233;23;20391;-77
2023/02/21 08:31:01;;;;;;;4.93;2.13;;;9.90;1.00;;;;;;6170043;23;20399;-77
2023/02/21 08:33:34;;;;;;;3.97;2.00;;;10.00;1.00;;;;;;6178421;23;20464;-80
2023/02/21 08:36:06;;;;;;;3.43;1.97;;;10.00;1.00;;;;;;6173707;23;20485;-78
2023/02/21 08:38:36;;;;;;;5.80;2.13;;;10.00;1.00;;;;;;6161459;23;20426;-77
2023/02/21 08:41:04;;;;;;;4.80;2.80;;;10.00;1.00;;;;;;6154969;23;20512;-76
2023/02/21 08:43:33;;;;;;;3.37;1.80;;;10.00;1.00;;;;;;6140372;23;20892;-78
2023/02/21 08:46:01;;;;;;;3.07;1.43;;;10.10;1.00;;;;;;6188775;23;20396;-82
2023/02/21 08:48:32;;;;;;;3.97;1.70;;;10.20;1.00;;;;;;6179499;23;20450;-81
2023/02/21 08:53:46;;;;;;;3.53;1.57;;;10.80;1.00;;;;;;6167929;23;20423;-77
2023/02/21 08:56:20;;;;;;;4.20;1.77;;;11.00;1.00;;;;;;6158617;23;20437;-78
2023/02/21 08:58:53;;;;;;;4.57;3.10;;;11.10;1.00;;;;;;6158271;23;20395;-78
2023/02/21 09:01:22;;;;;;;3.37;1.40;;;11.30;1.00;;;;;;6169340;23;20419;-83
2023/02/21 09:04:04;;;;;;;3.90;1.27;;;11.50;1.00;;;;;;6178228;23;20382;-84
2023/02/21 09:06:36;;;;;;;4.00;1.50;;;11.50;1.00;;;;;;6171515;23;20455;-86
2023/02/21 09:09:03;;;;;;;4.13;1.97;;;11.60;1.00;;;;;;6163990;23;20414;-78
2023/02/21 09:11:41;;;;;;;8.17;2.10;;;11.60;1.00;;;;;;6166553;23;20398;-78
2023/02/21 09:14:11;;;;;;;4.00;1.30;;;11.50;1.00;;;;;;6176847;23;20420;-77
2023/02/21 09:16:41;;;;;;;3.60;1.67;;;11.30;1.00;;;;;;6174397;23;20462;-80
2023/02/21 09:19:12;;;;;;;4.40;1.60;;;11.30;1.00;;;;;;6180567;23;20421;-81
2023/02/21 09:21:54;;;;;;;6.27;1.63;;;11.10;1.00;;;;;;6148370;23;20423;-80
2023/02/21 09:24:24;;;;;;;4.40;1.40;;;11.10;1.00;;;;;;6160905;23;20410;-80
2023/02/21 09:26:53;;;;;;;5.40;1.30;;;11.00;1.00;;;;;;6167784;23;20398;-78
2023/02/21 09:29:23;;;;;;;6.87;1.23;;;11.00;1.00;;;;;;6157141;23;20410;-81
2023/02/21 09:31:52;;;;;;;3.80;1.60;;;11.00;1.00;;;;;;6177870;23;20410;-79
2023/02/21 09:34:22;;;;;;;7.30;2.27;;;11.00;1.00;;;;;;6175509;23;20387;-79
2023/02/21 09:36:51;;;;;;;5.27;1.50;;;11.00;1.00;;;;;;6175799;23;20397;-80
2023/02/21 09:39:22;;;;;;;6.30;1.93;;;11.00;1.00;;;;;;6161521;23;20402;-81
2023/02/21 09:41:54;;;;;;;4.67;1.73;;;11.00;1.00;;;;;;6176587;23;22427;-79
2023/02/21 09:44:24;;;;;;;4.10;1.70;;;11.20;1.00;;;;;;6163802;23;21040;-79
2023/02/21 09:47:00;;;;;;;5.73;1.77;;;11.40;1.00;;;;;;6119031;23;20438;-79
2023/02/21 09:49:43;;;;;;;6.70;2.00;;;11.30;1.00;;;;;;6174255;23;20398;-80
2023/02/21 09:52:25;;;;;;;8.97;1.80;;;11.20;1.00;;;;;;6175090;23;20479;-81
2023/02/21 09:55:07;;;;;;;7.23;1.90;;;11.40;1.00;;;;;;6177898;23;20451;-81
2023/02/21 09:57:41;;;;;;;10.20;1.93;;;11.40;1.00;;;;;;6155973;23;20438;-79
2023/02/21 10:00:21;;;;;;;5.47;2.03;;;11.60;1.00;;;;;;6167773;23;20390;-80
2023/02/21 10:03:01;;;;;;;5.63;2.27;;;11.60;1.00;;;;;;6163051;23;20405;-78
2023/02/21 10:05:43;;;;;;;5.00;1.67;;;11.60;1.00;;;;;;6153858;23;20430;-78
2023/02/21 10:08:35;;;;;;;8.17;2.43;;;11.70;1.00;;;;;;6158355;23;20537;-79
2023/02/21 10:11:25;;;;;;;5.33;1.90;;;11.70;1.00;;;;;;6174121;23;20415;-78
2023/02/21 10:13:56;;;;;;;6.07;1.70;;;11.80;1.00;;;;;;6162355;23;20502;-79
2023/02/21 10:16:29;;;;;;;7.07;3.00;;;11.90;1.00;;;;;;6163835;23;20436;-79
2023/02/21 10:19:04;;;;;;;8.50;2.00;;;12.00;1.00;;;;;;6159447;23;20474;-82
2023/02/21 10:21:37;;;;;;;8.87;1.93;;;12.10;1.00;;;;;;6162842;23;20474;-80
2023/02/21 10:24:14;;;;;;;6.50;1.97;;;12.30;1.00;;;;;;6139631;23;21337;-79
2023/02/21 10:26:52;;;;;;;7.40;2.70;;;12.30;1.00;;;;;;6160835;23;21163;-79
2023/02/21 10:29:23;;;;;;;7.93;2.83;;;12.30;1.00;;;;;;6138531;23;20506;-78
2023/02/21 10:31:56;;;;;;;9.77;2.50;;;12.40;1.00;;;;;;6163338;23;20430;-78
2023/02/21 10:34:27;;;;;;;17.43;6.20;;;12.40;1.00;;;;;;6166705;23;20474;-80
2023/02/21 10:37:03;;;;;;;11.10;4.70;;;12.50;1.00;;;;;;6124737;23;21127;-79
2023/02/21 10:39:37;;;;;;;10.00;3.00;;;12.50;1.00;;;;;;6163587;23;21205;-80
2023/02/21 10:42:04;;;;;;;13.70;2.93;;;12.40;1.00;;;;;;6165875;23;20419;-79
2023/02/21 10:44:35;;;;;;;9.53;3.20;;;12.40;1.00;;;;;;6163084;23;21056;-80
2023/02/21 10:47:14;;;;;;;14.10;2.83;;;12.30;1.00;;;;;;6163898;23;20470;-80
2023/02/21 10:49:50;;;;;;;8.37;2.97;;;12.50;1.00;;;;;;6164862;23;20458;-79
2023/02/21 10:52:21;;;;;;;9.00;3.20;;;12.70;1.00;;;;;;6165477;23;20517;-79
2023/02/21 10:55:07;;;;;;;12.90;3.67;;;12.80;1.00;;;;;;6163100;23;21221;-79
2023/02/21 10:57:42;;;;;;;10.53;2.47;;;12.80;1.00;;;;;;6148571;23;20430;-81
2023/02/21 11:00:20;;;;;;;14.47;3.03;;;12.60;1.00;;;;;;6157408;23;21180;-78
2023/02/21 11:02:55;;;;;;;6.47;2.23;;;12.60;1.00;;;;;;6175478;23;20446;-80
2023/02/21 11:05:23;;;;;;;6.50;2.43;;;12.40;1.00;;;;;;6163242;23;20477;-78
2023/02/21 11:08:08;;;;;;;10.90;3.30;;;12.40;1.00;;;;;;6156942;23;21406;-80
2023/02/21 11:10:40;;;;;;;9.67;2.90;;;12.60;1.00;;;;;;6167338;23;20404;-79
2023/02/21 11:13:18;;;;;;;11.90;2.63;;;12.80;1.00;;;;;;6161061;23;21143;-80
2023/02/21 11:15:49;;;;;;;5.03;2.00;;;12.90;1.00;;;;;;6154692;23;20455;-80
2023/02/21 11:18:21;;;;;;;11.57;2.80;;;13.00;1.00;;;;;;6180868;23;20415;-79
2023/02/21 11:20:49;;;;;;;9.73;1.63;;;13.00;1.00;;;;;;6153766;23;20490;-79
2023/02/21 11:23:29;;;;;;;9.80;2.60;;;12.80;1.00;;;;;;6162500;23;20426;-78
2023/02/21 11:26:07;;;;;;;7.33;2.40;;;12.70;1.00;;;;;;6162064;23;20434;-78
2023/02/21 11:28:39;;;;;;;5.10;1.83;;;12.70;1.00;;;;;;6151930;23;20438;-80
2023/02/21 11:31:42;;;;;;;9.50;2.43;;;12.60;1.00;;;;;;6150139;23;20433;-79
2023/02/21 11:34:15;;;;;;;11.83;2.30;;;12.90;1.00;;;;;;6142300;23;20395;-78
2023/02/21 11:36:50;;;;;;;7.60;2.37;;;13.10;1.00;;;;;;6150394;23;20394;-80
2023/02/21 11:39:26;;;;;;;13.10;2.60;;;13.00;1.00;;;;;;6158436;23;20442;-79
2023/02/21 11:41:56;;;;;;;10.23;3.30;;;12.70;1.00;;;;;;6160754;23;20431;-78
2023/02/21 11:44:28;;;;;;;9.17;2.83;;;12.80;1.00;;;;;;6170502;23;20414;-78
2023/02/21 11:47:07;;;;;;;7.90;3.10;;;12.80;1.00;;;;;;6096696;23;20415;-79
2023/02/21 11:49:49;;;;;;;11.30;2.60;;;12.90;1.00;;;;;;6165429;23;20490;-78
2023/02/21 11:52:20;;;;;;;8.27;2.30;;;13.00;1.00;;;;;;6167007;23;20438;-81
2023/02/21 11:54:48;;;;;;;11.80;3.33;;;13.10;1.00;;;;;;6162707;23;20954;-77
2023/02/21 11:57:23;;;;;;;7.33;2.07;;;13.00;1.00;;;;;;6166187;23;20419;-79
2023/02/21 11:59:59;;;;;;;11.83;2.60;;;13.10;1.00;;;;;;6160502;23;20506;-79
2023/02/21 12:02:55;;;;;;;15.47;3.77;;;13.30;1.00;;;;;;6162095;23;20439;-79
2023/02/21 12:05:49;;;;;;;9.50;2.87;;;13.10;1.00;;;;;;6161565;23;20440;-79
2023/02/21 12:08:37;;;;;;;10.33;2.70;;;13.00;1.00;;;;;;6162211;23;20411;-79
2023/02/21 12:11:33;;;;;;;13.97;2.90;;;13.10;1.00;;;;;;6161658;23;20427;-79
2023/02/21 12:14:16;;;;;;;10.97;2.80;;;12.90;1.00;;;;;;6160261;23;20431;-79
2023/02/21 12:16:54;;;;;;;8.93;2.23;;;13.40;1.00;;;;;;6162127;23;20430;-80
2023/02/21 12:19:38;;;;;;;11.03;3.50;;;13.80;1.00;;;;;;6162043;23;20549;-79
2023/02/21 12:22:16;;;;;;;7.37;2.23;;;14.00;1.00;;;;;;6168603;23;20447;-80
2023/02/21 12:24:56;;;;;;;6.77;2.40;;;13.90;1.00;;;;;;6167822;23;20434;-79
2023/02/21 12:27:35;;;;;;;13.40;3.60;;;13.60;1.00;;;;;;6164216;23;20435;-81
2023/02/21 12:30:19;;;;;;;11.30;3.20;;;13.80;1.00;;;;;;6164822;23;20436;-79
2023/02/21 12:32:50;;;;;;;12.10;3.53;;;13.20;1.00;;;;;;6161994;23;20875;-79
2023/02/21 12:35:53;;;;;;;9.97;3.17;;;12.60;1.00;;;;;;6164526;23;21009;-80
2023/02/21 12:38:34;;;;;;;16.07;3.57;;;12.30;1.00;;;;;;6163428;23;20469;-78
2023/02/21 12:41:09;;;;;;;14.00;3.57;;;12.20;1.00;;;;;;6138620;23;21176;-81
2023/02/21 12:44:05;;;;;;;9.13;3.27;;;12.20;1.00;;;;;;6163733;23;21145;-79
2023/02/21 12:46:36;;;;;;;10.13;3.00;;;12.30;1.00;;;;;;6161004;23;20435;-80
2023/02/21 12:49:09;;;;;;;10.30;3.60;;;12.40;1.00;;;;;;6159065;23;20458;-81
2023/02/21 12:51:42;;;;;;;11.53;3.37;;;12.40;1.00;;;;;;6157142;23;20399;-78
2023/02/21 12:54:17;;;;;;;12.77;3.20;;;12.40;1.00;;;;;;6161679;23;20818;-78
2023/02/21 12:56:51;;;;;;;10.30;3.30;;;12.20;1.00;;;;;;6160214;23;20497;-79
2023/02/21 12:59:31;;;;;;;7.97;2.80;;;12.10;1.00;;;;;;6159624;23;20504;-79
2023/02/21 13:02:05;;;;;;;16.07;3.87;;;12.00;1.00;;;;;;6165430;23;20444;-78
2023/02/21 13:04:38;;;;;;;10.20;2.83;;;11.90;1.00;;;;;;6162949;23;21115;-78
2023/02/21 13:07:24;;;;;;;10.03;2.83;;;11.80;1.00;;;;;;6173152;23;20430;-80
2023/02/21 13:10:00;;;;;;;6.03;2.30;;;11.70;1.00;;;;;;6163715;23;20510;-79
2023/02/21 13:12:33;;;;;;;9.67;3.17;;;11.70;1.00;;;;;;6161181;23;20481;-81
2023/02/21 13:15:15;;;;;;;9.30;2.60;;;11.70;1.00;;;;;;6158831;23;21213;-78
2023/02/21 13:17:43;;;;;;;9.20;3.33;;;11.80;1.00;;;;;;6159726;23;20462;-80
2023/02/21 13:20:17;;;;;;;7.70;2.50;;;11.80;1.00;;;;;;6163010;23;20427;-79
2023/02/21 13:26:03;;;;;;;13.70;4.50;;;11.90;1.00;;;;;;6161425;23;20514;-79
2023/02/21 13:28:37;;;;;;;13.03;3.30;;;11.90;1.00;;;;;;6160100;23;20434;-77
2023/02/21 13:31:17;;;;;;;13.60;3.43;;;12.00;1.00;;;;;;6157919;23;20439;-77
2023/02/21 13:33:51;;;;;;;20.83;4.80;;;12.00;1.00;;;;;;6156477;23;20486;-81
2023/02/21 13:36:26;;;;;;;7.90;2.97;;;12.20;1.00;;;;;;6160849;23;20525;-78
2023/02/21 13:39:03;;;;;;;9.73;2.60;;;12.20;1.00;;;;;;6158577;23;20435;-78
2023/02/21 13:41:36;;;;;;;14.40;3.80;;;12.10;1.00;;;;;;6161418;23;20415;-76
2023/02/21 13:44:09;;;;;;;11.70;3.00;;;12.10;1.00;;;;;;6160405;23;20422;-80
2023/02/21 13:47:15;;;;;;;10.57;2.90;;;12.10;1.00;;;;;;6148086;23;21232;-78
2023/02/21 13:49:57;;;;;;;9.63;2.90;;;12.00;1.00;;;;;;6063099;23;20556;-76
2023/02/21 13:52:53;;;;;;;11.60;3.20;;;12.00;1.00;;;;;;6152441;23;20427;-76
2023/02/21 13:55:31;;;;;;;13.43;3.67;;;12.10;1.00;;;;;;6157159;23;20419;-78
2023/02/21 13:58:42;;;;;;;6.97;2.53;;;12.20;1.00;;;;;;6159365;23;20518;-77
2023/02/21 14:01:41;;;;;;;13.83;3.47;;;12.30;1.00;;;;;;6159958;23;20466;-82
2023/02/21 14:04:45;;;;;;;7.80;2.80;;;12.30;1.00;;;;;;6067650;23;21029;-78
2023/02/21 14:07:23;;;;;;;16.17;3.27;;;12.10;1.00;;;;;;6152925;23;20418;-80
2023/02/21 14:09:54;;;;;;;11.80;3.23;;;12.00;1.00;;;;;;6176189;23;20427;-77
2023/02/21 14:12:26;;;;;;;8.43;3.20;;;11.90;1.00;;;;;;6163200;23;20430;-79
2023/02/21 14:15:06;;;;;;;12.60;3.20;;;11.80;1.00;;;;;;6156811;23;20486;-78
2023/02/21 14:17:33;;;;;;;10.57;3.40;;;11.70;1.00;;;;;;6161734;23;20430;-77
2023/02/21 14:20:02;;;;;;;12.60;2.93;;;11.80;1.00;;;;;;6162005;23;20545;-77
2023/02/21 14:22:37;;;;;;;13.60;3.43;;;11.80;1.00;;;;;;6164396;23;20962;-80
2023/02/21 14:25:07;;;;;;;11.23;3.10;;;11.90;1.00;;;;;;6154661;23;20404;-78
2023/02/21 14:27:40;;;;;;;10.37;2.97;;;12.00;1.00;;;;;;6174737;23;20428;-78
2023/02/21 14:30:34;;;;;;;10.50;2.97;;;12.00;1.00;;;;;;6164639;23;20462;-78
2023/02/21 14:33:22;;;;;;;14.57;4.97;;;11.90;1.00;;;;;;6140687;23;20438;-79
2023/02/21 14:35:59;;;;;;;17.63;3.87;;;11.90;1.00;;;;;;6163457;23;20731;-78
2023/02/21 14:38:30;;;;;;;10.83;4.03;;;11.90;1.00;;;;;;6122547;23;20468;-77
2023/02/21 14:41:20;;;;;;;13.90;4.30;;;11.90;1.00;;;;;;6162187;23;20886;-79
2023/02/21 14:44:07;;;;;;;10.87;6.43;;;11.80;1.00;;;;;;6159242;23;20514;-78
2023/02/21 14:47:13;;;;;;;12.33;4.00;;;11.80;1.00;;;;;;6155886;23;20422;-80
2023/02/21 14:50:14;;;;;;;12.40;3.97;;;11.90;1.00;;;;;;6173148;23;20450;-79
2023/02/21 14:53:22;;;;;;;12.73;4.03;;;11.80;1.00;;;;;;6181787;23;20379;-80
2023/02/21 14:56:37;;;;;;;10.90;3.70;;;11.70;1.00;;;;;;6163614;23;20399;-79
2023/02/21 14:59:40;;;;;;;16.10;4.00;;;11.60;1.00;;;;;;6158603;23;20437;-80
2023/02/21 15:02:31;;;;;;;13.37;3.87;;;11.50;1.00;;;;;;6176353;23;20399;-80
2023/02/21 15:05:23;;;;;;;8.87;3.27;;;11.40;1.00;;;;;;6162695;23;20409;-81
2023/02/21 15:08:15;;;;;;;21.60;7.27;;;11.40;1.00;;;;;;6166413;23;20398;-80
2023/02/21 15:10:44;;;;;;;17.87;5.90;;;11.40;1.00;;;;;;6170015;23;20382;-82
2023/02/21 15:13:42;;;;;;;12.90;3.67;;;11.30;1.00;;;;;;6179242;23;20446;-81
2023/02/21 15:16:32;;;;;;;10.40;4.03;;;11.30;1.00;;;;;;6174402;23;20422;-83
2023/02/21 15:19:03;;;;;;;12.90;4.20;;;11.30;1.00;;;;;;6148013;23;20417;-77
2023/02/21 15:21:33;;;;;;;21.40;4.63;;;11.40;1.00;;;;;;6170546;23;20489;-82
2023/02/21 15:24:16;;;;;;;12.27;3.80;;;11.50;1.00;;;;;;6171861;23;20398;-78
2023/02/21 15:26:45;;;;;;;17.53;3.70;;;11.50;1.00;;;;;;6173173;23;20427;-77
2023/02/21 15:29:21;;;;;;;13.60;3.87;;;11.60;1.00;;;;;;6168001;23;20433;-83
2023/02/21 15:32:07;;;;;;;12.67;3.77;;;11.60;1.00;;;;;;6141626;23;20449;-80
2023/02/21 15:34:44;;;;;;;11.70;4.00;;;11.50;1.00;;;;;;6167297;23;20406;-81
2023/02/21 15:37:33;;;;;;;17.03;5.33;;;11.60;1.00;;;;;;6177435;23;20525;-81
2023/02/21 15:40:12;;;;;;;10.37;3.80;;;11.60;1.00;;;;;;6164256;23;20422;-79
2023/02/21 15:42:51;;;;;;;15.23;4.40;;;11.60;1.00;;;;;;6160645;23;20391;-80
2023/02/21 15:45:33;;;;;;;12.40;3.83;;;11.60;1.00;;;;;;6167395;23;20415;-80
2023/02/21 15:48:05;;;;;;;15.13;4.00;;;11.50;1.00;;;;;;6169674;23;20401;-83
2023/02/21 15:50:42;;;;;;;13.50;3.90;;;11.50;1.00;;;;;;6169691;23;20411;-83
2023/02/21 15:53:15;;;;;;;18.10;4.90;;;11.40;1.00;;;;;;6166610;23;20399;-84
2023/02/21 15:55:44;;;;;;;12.53;4.73;;;11.40;1.00;;;;;;6167329;23;20446;-83